Terminal Aerodrome Forecast
Issued by NWS Cleveland, OH

Home | Current Version | Previous Version | Text Only | Print | Product List | Glossary On
Versions: 1 2 3 4 5 6 7 8 9 10 11 12 13 14
000
FTUS41 KCLE 240500
TAFYNG
TAF
KYNG 240540Z 2406/2506 16005KT P6SM SCT250
     FM241600 20007KT P6SM SCT120 BKN250
     FM250000 15005KT P6SM BKN120 BKN250=

USA.gov is the U.S. government's official web portal to all federal, state and local government web resources and services.